createdAt,value
2023-01-07T00:00:32.771Z,-22.60
2023-01-07T00:03:01.930Z,-22.55
2023-01-07T00:05:31.107Z,-22.61
2023-01-07T00:08:00.608Z,-22.63
2023-01-07T00:13:34.596Z,-22.98
2023-01-07T00:16:10.998Z,-22.79
2023-01-07T00:18:40.568Z,-22.74
2023-01-07T00:21:15.851Z,-22.76
2023-01-07T00:23:45.878Z,-22.65
2023-01-07T00:26:23.760Z,-22.60
2023-01-07T00:28:55.464Z,-22.50
2023-01-07T00:31:26.538Z,-22.61
2023-01-07T00:36:49.789Z,-22.68
2023-01-07T00:39:20.880Z,-22.64
2023-01-07T00:42:05.844Z,-22.63
2023-01-07T00:47:21.388Z,-22.65
2023-01-07T00:49:50.509Z,-22.67
2023-01-07T00:52:19.777Z,-22.65
2023-01-07T00:54:49.009Z,-22.56
2023-01-07T00:57:20.080Z,-22.46
2023-01-07T00:59:54.243Z,-22.73
2023-01-07T01:02:24.287Z,-22.44
2023-01-07T01:07:39.055Z,-22.39
2023-01-07T01:10:13.686Z,-22.47
2023-01-07T01:12:45.633Z,-22.54
2023-01-07T01:15:21.621Z,-22.51
2023-01-07T01:23:21.337Z,-22.40
2023-01-07T01:25:50.418Z,-22.37
2023-01-07T01:28:21.950Z,-22.53
2023-01-07T01:30:57.422Z,-22.21
2023-01-07T01:33:30.237Z,-22.29
2023-01-07T01:36:07.614Z,-22.14
2023-01-07T01:38:37.121Z,-22.31
2023-01-07T01:41:07.172Z,-21.99
2023-01-07T01:43:46.198Z,-21.89
2023-01-07T01:46:19.977Z,-21.89
2023-01-07T01:48:54.817Z,-21.88
2023-01-07T01:51:34.041Z,-22.00
2023-01-07T01:56:53.824Z,-21.98
2023-01-07T01:59:33.680Z,-22.10
2023-01-07T02:02:06.091Z,-22.29
2023-01-07T02:04:42.890Z,-22.06
2023-01-07T02:07:16.879Z,-22.10
2023-01-07T02:09:58.310Z,-22.27
2023-01-07T02:12:39.670Z,-22.30
2023-01-07T02:15:16.500Z,-22.32
2023-01-07T02:17:59.725Z,-22.35
2023-01-07T02:20:40.230Z,-22.67
2023-01-07T02:23:42.393Z,-22.66
2023-01-07T02:26:36.560Z,-22.52
2023-01-07T02:29:41.627Z,-22.51
2023-01-07T02:32:33.623Z,-22.49
2023-01-07T02:35:13.464Z,-22.47
2023-01-07T02:37:58.845Z,-22.54
2023-01-07T02:40:36.807Z,-22.63
2023-01-07T02:43:13.761Z,-22.63
2023-01-07T02:48:36.293Z,-22.74
2023-01-07T02:51:05.848Z,-22.74
2023-01-07T02:53:35.877Z,-22.94
2023-01-07T02:56:24.252Z,-22.82
2023-01-07T02:59:17.358Z,-23.08
2023-01-07T03:02:01.097Z,-23.14
2023-01-07T03:04:50.192Z,-22.99
2023-01-07T03:07:36.745Z,-22.97
2023-01-07T03:10:13.229Z,-22.89
2023-01-07T03:12:47.950Z,-22.98
2023-01-07T03:18:10.543Z,-23.35
2023-01-07T03:20:43.332Z,-23.20
2023-01-07T03:23:15.913Z,-23.09
2023-01-07T03:25:48.261Z,-22.99
2023-01-07T03:28:19.372Z,-22.92
2023-01-07T03:33:40.981Z,-23.08
2023-01-07T03:36:22.226Z,-23.08
2023-01-07T03:41:43.998Z,-23.15
2023-01-07T03:44:18.426Z,-23.21
2023-01-07T03:46:48.578Z,-23.27
2023-01-07T03:49:17.953Z,-23.25
2023-01-07T03:51:49.209Z,-23.27
2023-01-07T03:56:59.486Z,-23.46
2023-01-07T03:59:28.878Z,-23.57
2023-01-07T04:01:58.853Z,-23.71
2023-01-07T04:04:28.716Z,-23.58
2023-01-07T04:06:59.964Z,-23.84
2023-01-07T04:09:35.261Z,-23.59
2023-01-07T04:12:04.434Z,-23.49
2023-01-07T04:14:33.759Z,-23.70
2023-01-07T04:17:03.108Z,-23.64
2023-01-07T04:19:32.877Z,-23.62
2023-01-07T04:22:09.516Z,-23.69
2023-01-07T04:24:38.955Z,-23.62
2023-01-07T04:27:08.670Z,-23.57
2023-01-07T04:29:43.077Z,-23.55
2023-01-07T04:32:17.610Z,-23.53
2023-01-07T04:34:47.161Z,-23.55
2023-01-07T04:37:18.475Z,-23.72
2023-01-07T04:39:48.011Z,-23.56
2023-01-07T04:42:24.513Z,-23.50
2023-01-07T04:44:54.429Z,-23.50
2023-01-07T04:47:24.746Z,-23.53
2023-01-07T04:49:54.591Z,-23.64
2023-01-07T04:52:31.610Z,-23.60
2023-01-07T04:55:07.997Z,-23.60
2023-01-07T04:57:37.213Z,-23.65
2023-01-07T05:00:09.231Z,-24.06
2023-01-07T05:02:39.392Z,-23.78
2023-01-07T05:05:11.457Z,-24.05
2023-01-07T05:07:43.610Z,-24.08
2023-01-07T05:10:19.091Z,-24.12
2023-01-07T05:12:49.042Z,-23.96
2023-01-07T05:15:25.559Z,-23.93
2023-01-07T05:17:56.820Z,-23.93
2023-01-07T05:20:27.866Z,-23.89
2023-01-07T05:22:59.202Z,-23.92
2023-01-07T05:25:33.792Z,-23.85
2023-01-07T05:28:03.628Z,-23.90
2023-01-07T05:30:35.224Z,-23.79
2023-01-07T05:33:06.768Z,-23.82
2023-01-07T05:35:37.138Z,-23.90
2023-01-07T05:38:08.315Z,-23.90
2023-01-07T05:40:43.666Z,-23.82
2023-01-07T05:43:21.194Z,-23.75
2023-01-07T05:45:50.759Z,-23.71
2023-01-07T05:48:25.092Z,-23.93
2023-01-07T05:50:54.422Z,-23.80
2023-01-07T05:53:25.588Z,-23.88
2023-01-07T05:56:00.526Z,-23.79
2023-01-07T05:58:30.556Z,-23.74
2023-01-07T06:00:59.678Z,-23.99
2023-01-07T06:03:31.415Z,-24.04
2023-01-07T06:06:06.760Z,-24.14
2023-01-07T06:08:39.942Z,-23.87
2023-01-07T06:11:14.135Z,-24.11
2023-01-07T06:13:43.467Z,-23.87
2023-01-07T06:16:14.410Z,-23.78
2023-01-07T06:18:48.616Z,-23.66
2023-01-07T06:21:17.917Z,-23.72
2023-01-07T06:23:59.094Z,-23.76
2023-01-07T06:26:28.293Z,-23.73
2023-01-07T06:29:02.430Z,-24.06
2023-01-07T06:31:33.413Z,-23.72
2023-01-07T06:34:07.659Z,-23.75
2023-01-07T06:36:36.871Z,-23.55
2023-01-07T06:39:08.088Z,-23.63
2023-01-07T06:41:37.281Z,-23.62
2023-01-07T06:47:02.058Z,-23.47
2023-01-07T06:49:31.147Z,-23.69
2023-01-07T06:52:00.315Z,-23.43
2023-01-07T06:54:36.479Z,-23.38
2023-01-07T06:57:05.990Z,-23.39
2023-01-07T06:59:40.164Z,-23.39
2023-01-07T07:02:09.495Z,-23.46
2023-01-07T07:04:38.736Z,-23.65
2023-01-07T07:07:07.970Z,-23.29
2023-01-07T07:09:44.058Z,-23.41
2023-01-07T07:12:14.023Z,-23.15
2023-01-07T07:14:43.162Z,-23.08
2023-01-07T07:17:12.408Z,-23.06
2023-01-07T07:22:25.619Z,-23.28
2023-01-07T07:24:56.711Z,-22.97
2023-01-07T07:27:25.846Z,-22.94
2023-01-07T07:30:00.049Z,-22.95
2023-01-07T07:32:29.804Z,-23.00
2023-01-07T07:35:01.992Z,-22.80
2023-01-07T07:37:32.525Z,-22.77
2023-01-07T07:40:03.543Z,-22.83
2023-01-07T07:43:11.241Z,-22.88
2023-01-07T07:45:29.098Z,-23.14
2023-01-07T07:47:58.270Z,-22.95
2023-01-07T07:50:27.465Z,-22.95
2023-01-07T07:55:39.469Z,-22.98
2023-01-07T07:58:08.914Z,-23.05
2023-01-07T08:00:38.768Z,-22.94
2023-01-07T08:08:41.924Z,-22.49
2023-01-07T08:11:18.545Z,-22.24
2023-01-07T08:13:47.715Z,-22.08
2023-01-07T08:16:16.824Z,-22.25
2023-01-07T08:18:46.669Z,-22.35
2023-01-07T08:21:15.791Z,-22.46
2023-01-07T08:26:41.135Z,-22.10
2023-01-07T08:29:15.411Z,-21.83
2023-01-07T08:31:49.683Z,-21.77
2023-01-07T08:34:18.869Z,-21.76
2023-01-07T08:36:48.423Z,-21.65
2023-01-07T08:39:23.342Z,-21.58
2023-01-07T08:41:54.622Z,-21.96
2023-01-07T08:44:23.775Z,-21.61
2023-01-07T08:46:58.099Z,-21.73
2023-01-07T08:49:27.337Z,-21.79
2023-01-07T08:51:56.441Z,-21.48
2023-01-07T08:54:25.692Z,-21.54
2023-01-07T08:56:56.750Z,-21.34
2023-01-07T08:59:25.930Z,-21.47
2023-01-07T09:01:55.713Z,-21.44
2023-01-07T09:04:30.334Z,-21.34
2023-01-07T09:06:59.456Z,-21.17
2023-01-07T09:09:28.738Z,-21.22
2023-01-07T09:11:59.952Z,-21.19
2023-01-07T09:14:32.553Z,-21.28
2023-01-07T09:17:01.917Z,-21.59
2023-01-07T09:22:16.129Z,-22.22
2023-01-07T09:24:47.821Z,-22.05
2023-01-07T09:27:19.234Z,-21.88
2023-01-07T09:29:48.790Z,-21.53
2023-01-07T09:32:17.901Z,-21.76
2023-01-07T09:34:47.293Z,-21.69
2023-01-07T09:40:01.015Z,-21.32
2023-01-07T09:42:45.856Z,-21.12
2023-01-07T09:45:20.191Z,-20.96
2023-01-07T09:47:52.933Z,-20.92
2023-01-07T09:50:37.201Z,-21.42
2023-01-07T09:53:17.746Z,-21.37
2023-01-07T09:56:11.583Z,-21.39
2023-01-07T09:58:48.739Z,-21.63
2023-01-07T10:01:27.971Z,-21.56
2023-01-07T10:04:07.347Z,-21.03
2023-01-07T10:06:44.438Z,-21.13
2023-01-07T10:12:26.454Z,-21.00
2023-01-07T10:15:15.192Z,-20.75
2023-01-07T10:18:00.446Z,-20.54
2023-01-07T10:20:37.780Z,-20.44
2023-01-07T10:23:11.867Z,-20.70
2023-01-07T10:28:46.853Z,-20.39
2023-01-07T10:31:21.361Z,-20.51
2023-01-07T10:33:52.495Z,-20.71
2023-01-07T10:36:25.836Z,-20.85
2023-01-07T10:39:15.848Z,-20.92
2023-01-07T10:41:54.887Z,-20.96
2023-01-07T10:44:50.299Z,-20.99
2023-01-07T10:47:37.001Z,-20.96
2023-01-07T10:50:38.523Z,-20.64
2023-01-07T10:53:19.339Z,-20.73
2023-01-07T10:56:06.656Z,-20.37
2023-01-07T10:58:41.438Z,-20.74
2023-01-07T11:01:20.485Z,-20.22
2023-01-07T11:03:53.726Z,-20.24
2023-01-07T11:06:37.735Z,-20.25
2023-01-07T11:09:19.191Z,-20.20
2023-01-07T11:11:51.323Z,-20.25
2023-01-07T11:14:24.654Z,-20.37
2023-01-07T11:17:07.826Z,-20.27
2023-01-07T11:19:48.715Z,-20.53
2023-01-07T11:22:35.574Z,-20.27
2023-01-07T11:25:32.315Z,-20.28
2023-01-07T11:28:05.164Z,-20.20
2023-01-07T11:30:39.534Z,-20.13
2023-01-07T11:33:09.808Z,-20.10
2023-01-07T11:35:45.398Z,-20.03
2023-01-07T11:38:29.585Z,-20.18
2023-01-07T11:41:04.722Z,-20.04
2023-01-07T11:43:41.364Z,-20.06
2023-01-07T11:46:21.188Z,-20.13
2023-01-07T11:48:55.787Z,-20.30
2023-01-07T11:51:41.499Z,-20.18
2023-01-07T11:54:22.752Z,-20.24
2023-01-07T11:56:55.010Z,-20.13
2023-01-07T11:59:33.708Z,-20.21
2023-01-07T12:02:02.904Z,-20.25
2023-01-07T12:04:35.141Z,-20.52
2023-01-07T12:07:09.472Z,-20.30
2023-01-07T12:09:40.395Z,-20.29
2023-01-07T12:12:27.574Z,-20.15
2023-01-07T12:15:02.572Z,-20.09
2023-01-07T12:17:36.628Z,-20.12
2023-01-07T12:20:40.997Z,-20.15
2023-01-07T12:23:23.945Z,-20.20
2023-01-07T12:26:03.767Z,-20.25
2023-01-07T12:28:47.951Z,-20.27
2023-01-07T12:31:29.226Z,-20.36
2023-01-07T12:37:01.309Z,-20.39
2023-01-07T12:39:37.194Z,-20.34
2023-01-07T12:42:12.817Z,-20.40
2023-01-07T12:44:46.942Z,-20.36
2023-01-07T12:54:33.442Z,-20.88
2023-01-07T12:57:13.031Z,-20.92
2023-01-07T12:59:48.076Z,-20.86
2023-01-07T13:02:32.551Z,-20.93
2023-01-07T13:05:11.527Z,-20.68
2023-01-07T13:07:49.235Z,-20.66
2023-01-07T13:10:26.055Z,-20.61
2023-01-07T13:13:04.816Z,-20.51
2023-01-07T13:15:35.342Z,-20.51
2023-01-07T13:18:16.231Z,-20.60
2023-01-07T13:21:07.220Z,-20.56
2023-01-07T13:23:56.324Z,-20.62
2023-01-07T13:26:36.184Z,-20.47
2023-01-07T13:29:21.316Z,-20.54
2023-01-07T13:32:17.207Z,-20.74
2023-01-07T13:35:06.312Z,-20.77
2023-01-07T13:37:56.372Z,-20.78
2023-01-07T13:40:42.512Z,-20.75
2023-01-07T13:43:29.176Z,-20.72
2023-01-07T13:46:02.189Z,-20.61
2023-01-07T13:48:34.407Z,-20.57
2023-01-07T13:51:05.931Z,-20.42
2023-01-07T13:53:49.271Z,-20.58
2023-01-07T13:56:40.978Z,-20.34
2023-01-07T13:59:48.866Z,-20.39
2023-01-07T14:02:21.876Z,-20.44
2023-01-07T14:04:53.250Z,-20.48
2023-01-07T14:07:22.702Z,-20.61
2023-01-07T14:09:58.408Z,-20.56
2023-01-07T14:13:05.327Z,-20.51
2023-01-07T14:16:02.833Z,-20.71
2023-01-07T14:19:07.849Z,-20.52
2023-01-07T14:22:04.803Z,-20.53
2023-01-07T14:25:10.429Z,-20.53
2023-01-07T14:28:09.039Z,-20.54
2023-01-07T14:30:46.425Z,-20.79
2023-01-07T14:33:28.942Z,-20.51
2023-01-07T14:36:01.200Z,-20.79
2023-01-07T14:39:03.163Z,-20.43
2023-01-07T14:44:30.873Z,-20.50
2023-01-07T14:47:00.228Z,-20.57
2023-01-07T14:50:11.673Z,-20.50
2023-01-07T14:52:51.729Z,-20.51
2023-01-07T14:55:51.651Z,-20.55
2023-01-07T14:58:34.145Z,-20.73
2023-01-07T15:04:32.780Z,-20.64
2023-01-07T15:07:06.307Z,-20.58
2023-01-07T15:09:56.149Z,-20.61
2023-01-07T15:12:44.875Z,-20.62
2023-01-07T15:15:32.276Z,-20.61
2023-01-07T15:18:01.678Z,-20.70
2023-01-07T15:23:39.468Z,-20.52
2023-01-07T15:26:20.842Z,-20.54
2023-01-07T15:28:55.923Z,-20.45
2023-01-07T15:31:30.782Z,-20.45
2023-01-07T15:34:09.618Z,-20.43
2023-01-07T15:36:43.545Z,-20.47
2023-01-07T15:39:26.521Z,-20.43
2023-01-07T15:41:57.296Z,-20.37
2023-01-07T15:44:29.463Z,-20.44
2023-01-07T15:46:58.876Z,-20.44
2023-01-07T15:49:29.794Z,-20.40
2023-01-07T15:52:02.120Z,-20.32
2023-01-07T15:57:27.315Z,-20.36
2023-01-07T15:59:57.953Z,-20.36
2023-01-07T16:02:32.330Z,-20.40
2023-01-07T16:05:08.930Z,-20.34
2023-01-07T16:07:50.460Z,-20.33
2023-01-07T16:10:27.148Z,-20.33
2023-01-07T16:12:58.006Z,-20.37
2023-01-07T16:15:30.244Z,-20.35
2023-01-07T16:18:00.641Z,-20.33
2023-01-07T16:20:33.161Z,-20.30
2023-01-07T16:23:22.255Z,-20.26
2023-01-07T16:25:57.263Z,-20.24
2023-01-07T16:28:30.046Z,-20.26
2023-01-07T16:30:59.896Z,-20.26
2023-01-07T16:33:31.871Z,-20.26
2023-01-07T16:36:04.045Z,-20.21
2023-01-07T16:38:36.188Z,-20.20
2023-01-07T16:41:08.942Z,-20.19
2023-01-07T16:43:46.117Z,-20.13
2023-01-07T16:46:38.512Z,-20.18
2023-01-07T16:49:25.687Z,-20.14
2023-01-07T16:51:57.319Z,-20.17
2023-01-07T16:54:34.361Z,-20.38
2023-01-07T16:57:12.761Z,-20.27
2023-01-07T16:59:45.477Z,-20.35
2023-01-07T17:02:28.483Z,-20.43
2023-01-07T17:05:11.471Z,-20.57
2023-01-07T17:07:41.501Z,-20.56
2023-01-07T17:10:26.304Z,-20.50
2023-01-07T17:13:11.031Z,-20.44
2023-01-07T17:15:40.957Z,-20.42
2023-01-07T17:18:28.873Z,-20.32
2023-01-07T17:21:03.117Z,-20.36
2023-01-07T17:23:45.344Z,-20.26
2023-01-07T17:26:23.103Z,-20.25
2023-01-07T17:29:01.884Z,-20.22
2023-01-07T17:31:31.176Z,-20.49
2023-01-07T17:34:00.319Z,-20.24
2023-01-07T17:39:04.176Z,-20.29
2023-01-07T17:41:49.848Z,-20.35
2023-01-07T17:44:21.070Z,-20.38
2023-01-07T17:46:49.870Z,-20.31
2023-01-07T17:49:19.886Z,-20.35
2023-01-07T17:51:53.186Z,-20.38
2023-01-07T17:54:25.617Z,-20.54
2023-01-07T17:56:54.514Z,-20.44
2023-01-07T17:59:25.693Z,-20.48
2023-01-07T18:01:56.593Z,-20.61
2023-01-07T18:04:26.412Z,-20.56
2023-01-07T18:06:55.549Z,-20.48
2023-01-07T18:09:24.758Z,-20.54
2023-01-07T18:12:06.678Z,-20.42
2023-01-07T18:14:42.947Z,-20.50
2023-01-07T18:17:12.096Z,-20.47
2023-01-07T18:19:41.598Z,-20.70
2023-01-07T18:22:11.013Z,-20.54
2023-01-07T18:24:40.202Z,-20.33
2023-01-07T18:27:10.429Z,-20.31
2023-01-07T18:29:41.421Z,-20.02
2023-01-07T18:32:15.769Z,-20.01
2023-01-07T18:34:45.255Z,-20.00
2023-01-07T18:37:14.883Z,-20.06
2023-01-07T18:39:44.684Z,-19.97
2023-01-07T18:42:14.423Z,-20.04
2023-01-07T18:44:45.666Z,-20.08
2023-01-07T18:47:14.534Z,-20.08
2023-01-07T18:49:43.830Z,-20.24
2023-01-07T18:52:13.548Z,-20.08
2023-01-07T18:54:45.326Z,-20.00
2023-01-07T18:57:14.982Z,-20.02
2023-01-07T18:59:51.166Z,-20.04
2023-01-07T19:02:21.059Z,-19.97
2023-01-07T19:04:50.798Z,-20.01
2023-01-07T19:07:21.350Z,-20.04
2023-01-07T19:09:52.601Z,-19.91
2023-01-07T19:12:21.851Z,-19.89
2023-01-07T19:14:52.784Z,-19.92
2023-01-07T19:17:22.092Z,-19.99
2023-01-07T19:19:51.381Z,-20.16
2023-01-07T19:22:20.954Z,-19.95
2023-01-07T19:24:56.389Z,-19.95
2023-01-07T19:27:25.930Z,-19.94
2023-01-07T19:30:02.312Z,-19.85
2023-01-07T19:32:33.222Z,-19.96
2023-01-07T19:35:08.539Z,-20.00
2023-01-07T19:37:39.140Z,-20.02
2023-01-07T19:40:11.955Z,-19.81
2023-01-07T19:42:43.047Z,-19.77
2023-01-07T19:45:14.553Z,-19.64
2023-01-07T19:47:43.866Z,-19.55
2023-01-07T19:50:15.457Z,-19.41
2023-01-07T19:52:44.885Z,-19.46
2023-01-07T19:55:14.669Z,-19.25
2023-01-07T19:57:43.974Z,-19.47
2023-01-07T20:00:16.484Z,-19.29
2023-01-07T20:02:45.910Z,-19.37
2023-01-07T20:05:15.514Z,-19.26
2023-01-07T20:07:44.860Z,-19.26
2023-01-07T20:10:14.080Z,-19.46
2023-01-07T20:12:43.371Z,-19.28
2023-01-07T20:15:14.897Z,-19.39
2023-01-07T20:17:44.057Z,-19.44
2023-01-07T20:20:13.443Z,-19.50
2023-01-07T20:22:42.936Z,-19.38
2023-01-07T20:25:12.832Z,-19.38
2023-01-07T20:27:42.020Z,-19.39
2023-01-07T20:30:12.899Z,-19.45
2023-01-07T20:32:44.342Z,-19.59
2023-01-07T20:35:13.739Z,-19.81
2023-01-07T20:43:01.036Z,-19.50
2023-01-07T20:45:30.152Z,-19.49
2023-01-07T20:48:02.593Z,-19.45
2023-01-07T20:50:39.833Z,-19.45
2023-01-07T20:53:10.245Z,-19.42
2023-01-07T20:55:39.363Z,-19.43
2023-01-07T20:58:08.427Z,-19.42
2023-01-07T21:00:42.914Z,-19.45
2023-01-07T21:03:14.031Z,-19.40
2023-01-07T21:05:48.165Z,-19.32
2023-01-07T21:08:18.864Z,-19.42
2023-01-07T21:10:48.097Z,-19.39
2023-01-07T21:13:23.182Z,-19.39
2023-01-07T21:15:52.647Z,-19.34
2023-01-07T21:18:24.089Z,-19.33
2023-01-07T21:20:53.332Z,-19.36
2023-01-07T21:23:22.564Z,-19.46
2023-01-07T21:25:51.905Z,-19.37
2023-01-07T21:28:21.481Z,-19.44
2023-01-07T21:30:50.715Z,-19.44
2023-01-07T21:33:19.840Z,-19.46
2023-01-07T21:35:51.054Z,-19.64
2023-01-07T21:38:19.934Z,-19.40
2023-01-07T21:40:49.031Z,-19.48
2023-01-07T21:43:18.277Z,-19.45
2023-01-07T21:45:47.562Z,-19.49
2023-01-07T21:48:16.856Z,-19.55
2023-01-07T21:50:52.985Z,-19.49
2023-01-07T21:53:22.293Z,-19.48
2023-01-07T21:55:51.403Z,-19.44
2023-01-07T21:58:20.617Z,-19.44
2023-01-07T22:00:51.880Z,-19.42
2023-01-07T22:03:21.348Z,-19.45
2023-01-07T22:06:00.384Z,-19.45
2023-01-07T22:08:41.378Z,-19.29
2023-01-07T22:11:14.371Z,-19.26
2023-01-07T22:13:43.539Z,-19.31
2023-01-07T22:16:12.837Z,-19.37
2023-01-07T22:18:42.132Z,-19.24
2023-01-07T22:21:13.597Z,-19.22
2023-01-07T22:23:44.462Z,-19.22
2023-01-07T22:26:15.086Z,-19.25
2023-01-07T22:28:54.348Z,-19.39
2023-01-07T22:31:25.657Z,-19.25
2023-01-07T22:33:55.633Z,-19.26
2023-01-07T22:36:31.131Z,-19.28
2023-01-07T22:39:09.383Z,-19.29
2023-01-07T22:44:23.574Z,-19.22
2023-01-07T22:46:59.491Z,-19.16
2023-01-07T22:49:32.315Z,-19.20
2023-01-07T22:52:03.949Z,-19.22
2023-01-07T22:54:38.439Z,-19.02
2023-01-07T22:57:10.354Z,-18.94
2023-01-07T22:59:39.611Z,-18.83
2023-01-07T23:02:08.681Z,-18.70
2023-01-07T23:04:37.869Z,-18.63
2023-01-07T23:07:08.995Z,-18.61
2023-01-07T23:09:38.291Z,-18.59
2023-01-07T23:12:19.696Z,-18.56
2023-01-07T23:14:48.561Z,-18.54
2023-01-07T23:17:17.663Z,-18.54
2023-01-07T23:19:46.955Z,-18.45
2023-01-07T23:22:18.199Z,-18.51
2023-01-07T23:24:47.197Z,-18.38
2023-01-07T23:27:16.274Z,-18.39
2023-01-07T23:32:21.097Z,-18.20
2023-01-07T23:34:50.165Z,-18.16
2023-01-07T23:37:21.361Z,-18.23
2023-01-07T23:39:55.649Z,-18.02
2023-01-07T23:42:25.089Z,-17.98
2023-01-07T23:44:54.144Z,-17.92
2023-01-07T23:47:23.481Z,-17.85
2023-01-07T23:49:53.053Z,-17.98
2023-01-07T23:52:29.813Z,-17.84
2023-01-07T23:54:59.596Z,-17.75
2023-01-07T23:57:29.743Z,-17.76
2023-01-07T23:59:59.027Z,-17.68
